sensor_id;sensor_type;location;lat;lon;timestamp;pressure;altitude;pressure_sealevel;temperature
53667;BMP280;39568;51.026;5.468;2023-02-01T00:01:57;101309.28;;;5.49
53667;BMP280;39568;51.026;5.468;2023-02-01T00:04:24;101297.25;;;5.48
53667;BMP280;39568;51.026;5.468;2023-02-01T00:06:50;101299.91;;;5.48
53667;BMP280;39568;51.026;5.468;2023-02-01T00:09:19;101295.72;;;5.38
53667;BMP280;39568;51.026;5.468;2023-02-01T00:11:46;101298.06;;;5.36
53667;BMP280;39568;51.026;5.468;2023-02-01T00:14:12;101291.84;;;5.30
53667;BMP280;39568;51.026;5.468;2023-02-01T00:16:39;101283.63;;;5.28
53667;BMP280;39568;51.026;5.468;2023-02-01T00:19:09;101288.31;;;5.24
53667;BMP280;39568;51.026;5.468;2023-02-01T00:21:36;101292.22;;;5.19
53667;BMP280;39568;51.026;5.468;2023-02-01T00:24:03;101288.09;;;5.18
53667;BMP280;39568;51.026;5.468;2023-02-01T00:26:33;101282.53;;;5.16
53667;BMP280;39568;51.026;5.468;2023-02-01T00:29:00;101287.91;;;5.13
53667;BMP280;39568;51.026;5.468;2023-02-01T00:31:27;101277.59;;;5.05
53667;BMP280;39568;51.026;5.468;2023-02-01T00:33:54;101271.88;;;5.07
53667;BMP280;39568;51.026;5.468;2023-02-01T00:36:21;101268.53;;;5.07
53667;BMP280;39568;51.026;5.468;2023-02-01T00:38:47;101266.44;;;5.01
53667;BMP280;39568;51.026;5.468;2023-02-01T00:41:16;101264.22;;;5.00
53667;BMP280;39568;51.026;5.468;2023-02-01T00:43:45;101260.31;;;5.04
53667;BMP280;39568;51.026;5.468;2023-02-01T00:46:13;101251.84;;;4.88
53667;BMP280;39568;51.026;5.468;2023-02-01T00:48:40;101232.25;;;4.76
53667;BMP280;39568;51.026;5.468;2023-02-01T00:51:09;101221.06;;;4.72
53667;BMP280;39568;51.026;5.468;2023-02-01T00:53:36;101215.94;;;4.69
53667;BMP280;39568;51.026;5.468;2023-02-01T00:56:03;101230.47;;;4.73
53667;BMP280;39568;51.026;5.468;2023-02-01T00:58:31;101233.22;;;4.70
53667;BMP280;39568;51.026;5.468;2023-02-01T01:01:05;101223.22;;;4.65
53667;BMP280;39568;51.026;5.468;2023-02-01T01:03:34;101222.25;;;4.71
53667;BMP280;39568;51.026;5.468;2023-02-01T01:06:04;101233.59;;;4.81
53667;BMP280;39568;51.026;5.468;2023-02-01T01:08:31;101232.44;;;4.82
53667;BMP280;39568;51.026;5.468;2023-02-01T01:10:58;101231.47;;;4.88
53667;BMP280;39568;51.026;5.468;2023-02-01T01:13:24;101239.00;;;4.99
53667;BMP280;39568;51.026;5.468;2023-02-01T01:16:00;101242.88;;;5.07
53667;BMP280;39568;51.026;5.468;2023-02-01T01:18:29;101252.78;;;5.16
53667;BMP280;39568;51.026;5.468;2023-02-01T01:20:56;101249.44;;;5.24
53667;BMP280;39568;51.026;5.468;2023-02-01T01:23:23;101253.75;;;5.31
53667;BMP280;39568;51.026;5.468;2023-02-01T01:25:50;101244.09;;;5.37
53667;BMP280;39568;51.026;5.468;2023-02-01T01:28:17;101232.97;;;5.42
53667;BMP280;39568;51.026;5.468;2023-02-01T01:30:44;101247.28;;;5.53
53667;BMP280;39568;51.026;5.468;2023-02-01T01:33:11;101241.84;;;5.57
53667;BMP280;39568;51.026;5.468;2023-02-01T01:35:39;101236.44;;;5.60
53667;BMP280;39568;51.026;5.468;2023-02-01T01:38:06;101231.91;;;5.61
53667;BMP280;39568;51.026;5.468;2023-02-01T01:40:32;101236.16;;;5.58
53667;BMP280;39568;51.026;5.468;2023-02-01T01:42:59;101240.84;;;5.54
53667;BMP280;39568;51.026;5.468;2023-02-01T01:45:27;101234.97;;;5.50
53667;BMP280;39568;51.026;5.468;2023-02-01T01:47:56;101229.94;;;5.43
53667;BMP280;39568;51.026;5.468;2023-02-01T01:50:27;101231.25;;;5.39
53667;BMP280;39568;51.026;5.468;2023-02-01T01:52:58;101228.59;;;5.39
53667;BMP280;39568;51.026;5.468;2023-02-01T01:55:29;101236.50;;;5.39
53667;BMP280;39568;51.026;5.468;2023-02-01T01:58:00;101237.25;;;5.39
53667;BMP280;39568;51.026;5.468;2023-02-01T02:00:28;101246.63;;;5.40
53667;BMP280;39568;51.026;5.468;2023-02-01T02:02:58;101261.28;;;5.41
53667;BMP280;39568;51.026;5.468;2023-02-01T02:05:29;101252.34;;;5.39
53667;BMP280;39568;51.026;5.468;2023-02-01T02:07:59;101262.69;;;5.33
53667;BMP280;39568;51.026;5.468;2023-02-01T02:10:27;101259.03;;;5.31
53667;BMP280;39568;51.026;5.468;2023-02-01T02:13:08;101266.31;;;5.27
53667;BMP280;39568;51.026;5.468;2023-02-01T02:15:40;101270.56;;;5.24
53667;BMP280;39568;51.026;5.468;2023-02-01T02:18:14;101266.72;;;5.25
53667;BMP280;39568;51.026;5.468;2023-02-01T02:20:57;101265.72;;;5.23
53667;BMP280;39568;51.026;5.468;2023-02-01T02:23:47;101281.38;;;5.17
53667;BMP280;39568;51.026;5.468;2023-02-01T02:26:26;101270.38;;;5.19
53667;BMP280;39568;51.026;5.468;2023-02-01T02:29:32;101257.19;;;5.19
53667;BMP280;39568;51.026;5.468;2023-02-01T02:32:19;101261.53;;;5.13
53667;BMP280;39568;51.026;5.468;2023-02-01T02:34:55;101259.66;;;5.13
53667;BMP280;39568;51.026;5.468;2023-02-01T02:37:30;101260.69;;;5.16
53667;BMP280;39568;51.026;5.468;2023-02-01T02:40:05;101258.34;;;5.18
53667;BMP280;39568;51.026;5.468;2023-02-01T02:42:38;101253.69;;;5.22
53667;BMP280;39568;51.026;5.468;2023-02-01T02:45:27;101258.97;;;5.22
53667;BMP280;39568;51.026;5.468;2023-02-01T02:48:19;101245.91;;;5.18
53667;BMP280;39568;51.026;5.468;2023-02-01T02:50:51;101245.63;;;5.25
53667;BMP280;39568;51.026;5.468;2023-02-01T02:53:41;101233.50;;;5.28
53667;BMP280;39568;51.026;5.468;2023-02-01T02:56:27;101242.84;;;5.20
53667;BMP280;39568;51.026;5.468;2023-02-01T02:59:14;101250.75;;;5.20
53667;BMP280;39568;51.026;5.468;2023-02-01T03:02:01;101236.94;;;5.16
53667;BMP280;39568;51.026;5.468;2023-02-01T03:04:45;101236.63;;;5.14
53667;BMP280;39568;51.026;5.468;2023-02-01T03:07:42;101231.91;;;5.09
53667;BMP280;39568;51.026;5.468;2023-02-01T03:10:05;101243.06;;;5.13
53667;BMP280;39568;51.026;5.468;2023-02-01T03:12:37;101233.97;;;5.14
53667;BMP280;39568;51.026;5.468;2023-02-01T03:15:32;101224.91;;;5.15
53667;BMP280;39568;51.026;5.468;2023-02-01T03:18:00;101222.16;;;5.18
53667;BMP280;39568;51.026;5.468;2023-02-01T03:20:29;101220.88;;;5.23
53667;BMP280;39568;51.026;5.468;2023-02-01T03:22:59;101234.59;;;5.18
53667;BMP280;39568;51.026;5.468;2023-02-01T03:25:28;101231.72;;;5.25
53667;BMP280;39568;51.026;5.468;2023-02-01T03:27:59;101228.50;;;5.21
53667;BMP280;39568;51.026;5.468;2023-02-01T03:30:29;101222.78;;;5.22
53667;BMP280;39568;51.026;5.468;2023-02-01T03:32:59;101210.91;;;5.27
53667;BMP280;39568;51.026;5.468;2023-02-01T03:35:29;101216.59;;;5.25
53667;BMP280;39568;51.026;5.468;2023-02-01T03:38:03;101213.56;;;5.27
53667;BMP280;39568;51.026;5.468;2023-02-01T03:40:33;101210.38;;;5.32
53667;BMP280;39568;51.026;5.468;2023-02-01T03:43:01;101205.22;;;5.28
53667;BMP280;39568;51.026;5.468;2023-02-01T03:45:34;101227.91;;;5.26
53667;BMP280;39568;51.026;5.468;2023-02-01T03:48:05;101230.97;;;5.24
53667;BMP280;39568;51.026;5.468;2023-02-01T03:50:33;101217.31;;;5.17
53667;BMP280;39568;51.026;5.468;2023-02-01T03:53:05;101224.06;;;5.18
53667;BMP280;39568;51.026;5.468;2023-02-01T03:55:34;101231.44;;;5.23
53667;BMP280;39568;51.026;5.468;2023-02-01T03:58:06;101231.44;;;5.23
53667;BMP280;39568;51.026;5.468;2023-02-01T04:00:33;101240.19;;;5.20
53667;BMP280;39568;51.026;5.468;2023-02-01T04:03:01;101237.13;;;5.21
53667;BMP280;39568;51.026;5.468;2023-02-01T04:05:29;101222.94;;;5.28
53667;BMP280;39568;51.026;5.468;2023-02-01T04:07:56;101215.31;;;5.30
53667;BMP280;39568;51.026;5.468;2023-02-01T04:10:25;101230.63;;;5.35
53667;BMP280;39568;51.026;5.468;2023-02-01T04:12:52;101216.41;;;5.41
53667;BMP280;39568;51.026;5.468;2023-02-01T04:15:19;101217.72;;;5.37
53667;BMP280;39568;51.026;5.468;2023-02-01T04:17:46;101220.69;;;5.39
53667;BMP280;39568;51.026;5.468;2023-02-01T04:20:12;101208.50;;;5.41
53667;BMP280;39568;51.026;5.468;2023-02-01T04:22:39;101231.81;;;5.43
53667;BMP280;39568;51.026;5.468;2023-02-01T04:25:07;101234.75;;;5.45
53667;BMP280;39568;51.026;5.468;2023-02-01T04:27:35;101235.50;;;5.45
53667;BMP280;39568;51.026;5.468;2023-02-01T04:30:03;101233.13;;;5.38
53667;BMP280;39568;51.026;5.468;2023-02-01T04:32:29;101235.91;;;5.35
53667;BMP280;39568;51.026;5.468;2023-02-01T04:34:56;101232.63;;;5.31
53667;BMP280;39568;51.026;5.468;2023-02-01T04:37:23;101228.50;;;5.30
53667;BMP280;39568;51.026;5.468;2023-02-01T04:39:50;101230.13;;;5.27
53667;BMP280;39568;51.026;5.468;2023-02-01T04:42:16;101220.56;;;5.21
53667;BMP280;39568;51.026;5.468;2023-02-01T04:44:44;101210.63;;;5.25
53667;BMP280;39568;51.026;5.468;2023-02-01T04:47:11;101213.19;;;5.16
53667;BMP280;39568;51.026;5.468;2023-02-01T04:49:38;101197.78;;;5.14
53667;BMP280;39568;51.026;5.468;2023-02-01T04:52:05;101204.97;;;5.14
53667;BMP280;39568;51.026;5.468;2023-02-01T04:54:31;101206.97;;;5.10
53667;BMP280;39568;51.026;5.468;2023-02-01T04:56:58;101211.53;;;5.09
53667;BMP280;39568;51.026;5.468;2023-02-01T04:59:26;101200.81;;;5.03
53667;BMP280;39568;51.026;5.468;2023-02-01T05:01:55;101201.69;;;5.00
53667;BMP280;39568;51.026;5.468;2023-02-01T05:04:22;101205.53;;;5.09
53667;BMP280;39568;51.026;5.468;2023-02-01T05:06:48;101209.03;;;5.05
53667;BMP280;39568;51.026;5.468;2023-02-01T05:09:15;101212.09;;;5.04
53667;BMP280;39568;51.026;5.468;2023-02-01T05:11:42;101203.88;;;5.02
53667;BMP280;39568;51.026;5.468;2023-02-01T05:14:26;101218.66;;;4.99
53667;BMP280;39568;51.026;5.468;2023-02-01T05:16:54;101205.47;;;4.99
53667;BMP280;39568;51.026;5.468;2023-02-01T05:19:21;101203.38;;;4.94
53667;BMP280;39568;51.026;5.468;2023-02-01T05:21:47;101210.63;;;5.03
53667;BMP280;39568;51.026;5.468;2023-02-01T05:24:14;101215.59;;;5.01
53667;BMP280;39568;51.026;5.468;2023-02-01T05:26:45;101210.13;;;4.95
53667;BMP280;39568;51.026;5.468;2023-02-01T05:29:12;101209.50;;;4.91
53667;BMP280;39568;51.026;5.468;2023-02-01T05:31:39;101212.47;;;4.93
53667;BMP280;39568;51.026;5.468;2023-02-01T05:34:07;101225.09;;;4.98
53667;BMP280;39568;51.026;5.468;2023-02-01T05:36:34;101210.75;;;4.99
53667;BMP280;39568;51.026;5.468;2023-02-01T05:39:00;101214.00;;;5.03
53667;BMP280;39568;51.026;5.468;2023-02-01T05:41:27;101218.25;;;5.01
53667;BMP280;39568;51.026;5.468;2023-02-01T05:43:54;101210.88;;;4.96
53667;BMP280;39568;51.026;5.468;2023-02-01T05:46:21;101199.91;;;4.97
53667;BMP280;39568;51.026;5.468;2023-02-01T05:48:47;101209.09;;;4.93
53667;BMP280;39568;51.026;5.468;2023-02-01T05:51:15;101211.13;;;4.89
53667;BMP280;39568;51.026;5.468;2023-02-01T05:53:42;101199.22;;;4.84
53667;BMP280;39568;51.026;5.468;2023-02-01T05:56:09;101200.44;;;4.92
53667;BMP280;39568;51.026;5.468;2023-02-01T05:58:36;101200.72;;;4.94
53667;BMP280;39568;51.026;5.468;2023-02-01T06:01:03;101208.22;;;4.96
53667;BMP280;39568;51.026;5.468;2023-02-01T06:03:30;101195.47;;;4.94
53667;BMP280;39568;51.026;5.468;2023-02-01T06:05:56;101205.59;;;4.96
53667;BMP280;39568;51.026;5.468;2023-02-01T06:08:25;101210.97;;;4.92
53667;BMP280;39568;51.026;5.468;2023-02-01T06:10:57;101211.13;;;4.89
53667;BMP280;39568;51.026;5.468;2023-02-01T06:13:24;101210.25;;;4.92
53667;BMP280;39568;51.026;5.468;2023-02-01T06:15:51;101216.66;;;4.91
53667;BMP280;39568;51.026;5.468;2023-02-01T06:18:17;101224.56;;;4.91
53667;BMP280;39568;51.026;5.468;2023-02-01T06:20:44;101222.41;;;4.89
53667;BMP280;39568;51.026;5.468;2023-02-01T06:23:11;101231.47;;;4.88
53667;BMP280;39568;51.026;5.468;2023-02-01T06:25:39;101229.38;;;4.83
53667;BMP280;39568;51.026;5.468;2023-02-01T06:28:06;101228.50;;;4.86
53667;BMP280;39568;51.026;5.468;2023-02-01T06:30:33;101232.63;;;4.87
53667;BMP280;39568;51.026;5.468;2023-02-01T06:33:00;101220.19;;;4.88
53667;BMP280;39568;51.026;5.468;2023-02-01T06:35:26;101234.13;;;4.88
53667;BMP280;39568;51.026;5.468;2023-02-01T06:37:53;101228.50;;;4.86
53667;BMP280;39568;51.026;5.468;2023-02-01T06:40:20;101230.00;;;4.87
53667;BMP280;39568;51.026;5.468;2023-02-01T06:42:49;101228.84;;;4.88
53667;BMP280;39568;51.026;5.468;2023-02-01T06:45:16;101223.84;;;4.90
53667;BMP280;39568;51.026;5.468;2023-02-01T06:47:42;101222.09;;;4.87
53667;BMP280;39568;51.026;5.468;2023-02-01T06:50:10;101226.44;;;4.81
53667;BMP280;39568;51.026;5.468;2023-02-01T06:52:36;101232.66;;;4.75
53667;BMP280;39568;51.026;5.468;2023-02-01T06:55:04;101242.78;;;4.76
53667;BMP280;39568;51.026;5.468;2023-02-01T06:57:31;101249.53;;;4.77
53667;BMP280;39568;51.026;5.468;2023-02-01T07:00:01;101245.94;;;4.84
53667;BMP280;39568;51.026;5.468;2023-02-01T07:02:28;101247.19;;;4.79
53667;BMP280;39568;51.026;5.468;2023-02-01T07:04:55;101255.09;;;4.79
53667;BMP280;39568;51.026;5.468;2023-02-01T07:07:21;101251.84;;;4.75
53667;BMP280;39568;51.026;5.468;2023-02-01T07:09:48;101249.22;;;4.75
53667;BMP280;39568;51.026;5.468;2023-02-01T07:12:15;101265.47;;;4.74
53667;BMP280;39568;51.026;5.468;2023-02-01T07:14:42;101260.91;;;4.74
53667;BMP280;39568;51.026;5.468;2023-02-01T07:17:10;101261.03;;;4.71
53667;BMP280;39568;51.026;5.468;2023-02-01T07:19:37;101239.97;;;4.71
53667;BMP280;39568;51.026;5.468;2023-02-01T07:22:03;101243.03;;;4.69
53667;BMP280;39568;51.026;5.468;2023-02-01T07:24:30;101239.78;;;4.65
53667;BMP280;39568;51.026;5.468;2023-02-01T07:26:57;101226.91;;;4.67
53667;BMP280;39568;51.026;5.468;2023-02-01T07:29:23;101236.56;;;4.70
53667;BMP280;39568;51.026;5.468;2023-02-01T07:31:50;101236.28;;;4.68
53667;BMP280;39568;51.026;5.468;2023-02-01T07:34:18;101250.19;;;4.69
53667;BMP280;39568;51.026;5.468;2023-02-01T07:36:45;101244.19;;;4.68
53667;BMP280;39568;51.026;5.468;2023-02-01T07:39:11;101249.56;;;4.65
53667;BMP280;39568;51.026;5.468;2023-02-01T07:41:38;101242.41;;;4.65
53667;BMP280;39568;51.026;5.468;2023-02-01T07:44:05;101240.91;;;4.64
53667;BMP280;39568;51.026;5.468;2023-02-01T07:46:32;101241.78;;;4.61
53667;BMP280;39568;51.026;5.468;2023-02-01T07:48:58;101258.53;;;4.67
53667;BMP280;39568;51.026;5.468;2023-02-01T07:51:26;101241.97;;;4.67
53667;BMP280;39568;51.026;5.468;2023-02-01T07:53:53;101251.34;;;4.68
53667;BMP280;39568;51.026;5.468;2023-02-01T07:56:20;101254.72;;;4.68
53667;BMP280;39568;51.026;5.468;2023-02-01T07:58:49;101248.47;;;4.75
53667;BMP280;39568;51.026;5.468;2023-02-01T08:01:16;101248.78;;;4.77
53667;BMP280;39568;51.026;5.468;2023-02-01T08:03:46;101255.44;;;4.81
53667;BMP280;39568;51.026;5.468;2023-02-01T08:06:13;101260.16;;;4.86
53667;BMP280;39568;51.026;5.468;2023-02-01T08:08:41;101260.97;;;4.96
53667;BMP280;39568;51.026;5.468;2023-02-01T08:11:10;101270.44;;;5.06
53667;BMP280;39568;51.026;5.468;2023-02-01T08:13:37;101260.91;;;5.09
53667;BMP280;39568;51.026;5.468;2023-02-01T08:16:05;101283.28;;;5.17
53667;BMP280;39568;51.026;5.468;2023-02-01T08:18:33;101282.41;;;5.20
53667;BMP280;39568;51.026;5.468;2023-02-01T08:21:03;101283.88;;;5.42
53667;BMP280;39568;51.026;5.468;2023-02-01T08:23:30;101284.25;;;5.53
53667;BMP280;39568;51.026;5.468;2023-02-01T08:26:05;101295.38;;;5.57
53667;BMP280;39568;51.026;5.468;2023-02-01T08:28:32;101287.09;;;5.68
53667;BMP280;39568;51.026;5.468;2023-02-01T08:31:04;101288.31;;;5.76
53667;BMP280;39568;51.026;5.468;2023-02-01T08:33:30;101281.47;;;5.57
53667;BMP280;39568;51.026;5.468;2023-02-01T08:35:57;101295.38;;;5.57
53667;BMP280;39568;51.026;5.468;2023-02-01T08:38:24;101283.94;;;5.51
53667;BMP280;39568;51.026;5.468;2023-02-01T08:40:50;101303.59;;;5.50
53667;BMP280;39568;51.026;5.468;2023-02-01T08:43:19;101283.81;;;5.55
53667;BMP280;39568;51.026;5.468;2023-02-01T08:45:46;101294.81;;;5.53
53667;BMP280;39568;51.026;5.468;2023-02-01T08:48:13;101295.72;;;5.59
53667;BMP280;39568;51.026;5.468;2023-02-01T08:50:39;101291.97;;;5.70
53667;BMP280;39568;51.026;5.468;2023-02-01T08:53:06;101292.44;;;5.77
53667;BMP280;39568;51.026;5.468;2023-02-01T08:55:33;101296.84;;;5.80
53667;BMP280;39568;51.026;5.468;2023-02-01T08:57:59;101290.28;;;5.85
53667;BMP280;39568;51.026;5.468;2023-02-01T09:00:27;101296.59;;;5.87
53667;BMP280;39568;51.026;5.468;2023-02-01T09:02:55;101287.25;;;5.95
53667;BMP280;39568;51.026;5.468;2023-02-01T09:05:22;101293.56;;;5.98
53667;BMP280;39568;51.026;5.468;2023-02-01T09:07:51;101298.69;;;6.01
53667;BMP280;39568;51.026;5.468;2023-02-01T09:10:18;101264.09;;;6.08
53667;BMP280;39568;51.026;5.468;2023-02-01T09:12:45;101283.50;;;6.14
53667;BMP280;39568;51.026;5.468;2023-02-01T09:15:12;101292.03;;;6.19
53667;BMP280;39568;51.026;5.468;2023-02-01T09:17:40;101286.44;;;6.17
53667;BMP280;39568;51.026;5.468;2023-02-01T09:20:10;101282.31;;;6.15
53667;BMP280;39568;51.026;5.468;2023-02-01T09:22:37;101286.75;;;6.19
53667;BMP280;39568;51.026;5.468;2023-02-01T09:25:04;101266.22;;;6.32
53667;BMP280;39568;51.026;5.468;2023-02-01T09:27:31;101266.53;;;6.34
53667;BMP280;39568;51.026;5.468;2023-02-01T09:29:58;101255.06;;;6.55
53667;BMP280;39568;51.026;5.468;2023-02-01T09:32:25;101258.03;;;6.48
53667;BMP280;39568;51.026;5.468;2023-02-01T09:34:53;101254.94;;;6.49
53667;BMP280;39568;51.026;5.468;2023-02-01T09:37:20;101258.59;;;6.34
53667;BMP280;39568;51.026;5.468;2023-02-01T09:39:46;101248.00;;;6.25
53667;BMP280;39568;51.026;5.468;2023-02-01T09:42:23;101254.09;;;6.61
53667;BMP280;39568;51.026;5.468;2023-02-01T09:45:09;101253.34;;;6.79
53667;BMP280;39568;51.026;5.468;2023-02-01T09:47:39;101254.53;;;6.87
53667;BMP280;39568;51.026;5.468;2023-02-01T09:50:13;101249.22;;;6.96
53667;BMP280;39568;51.026;5.468;2023-02-01T09:52:45;101256.56;;;7.01
53667;BMP280;39568;51.026;5.468;2023-02-01T09:55:16;101271.38;;;7.26
53667;BMP280;39568;51.026;5.468;2023-02-01T09:57:47;101265.66;;;7.18
53667;BMP280;39568;51.026;5.468;2023-02-01T10:00:19;101269.19;;;7.24
53667;BMP280;39568;51.026;5.468;2023-02-01T10:02:46;101274.34;;;7.28
53667;BMP280;39568;51.026;5.468;2023-02-01T10:05:18;101261.66;;;7.83
53667;BMP280;39568;51.026;5.468;2023-02-01T10:07:58;101272.50;;;7.85
53667;BMP280;39568;51.026;5.468;2023-02-01T10:10:29;101270.16;;;7.45
53667;BMP280;39568;51.026;5.468;2023-02-01T10:13:14;101267.00;;;7.74
53667;BMP280;39568;51.026;5.468;2023-02-01T10:16:10;101274.97;;;7.98
53667;BMP280;39568;51.026;5.468;2023-02-01T10:18:54;101267.94;;;7.95
53667;BMP280;39568;51.026;5.468;2023-02-01T10:21:33;101277.56;;;8.30
53667;BMP280;39568;51.026;5.468;2023-02-01T10:24:20;101269.69;;;8.21
53667;BMP280;39568;51.026;5.468;2023-02-01T10:26:53;101273.28;;;8.33
53667;BMP280;39568;51.026;5.468;2023-02-01T10:29:25;101266.34;;;8.35
53667;BMP280;39568;51.026;5.468;2023-02-01T10:31:54;101275.94;;;8.09
53667;BMP280;39568;51.026;5.468;2023-02-01T10:34:23;101266.97;;;8.69
53667;BMP280;39568;51.026;5.468;2023-02-01T10:36:55;101289.59;;;8.40
53667;BMP280;39568;51.026;5.468;2023-02-01T10:39:23;101270.19;;;8.87
53667;BMP280;39568;51.026;5.468;2023-02-01T10:41:49;101269.44;;;8.58
53667;BMP280;39568;51.026;5.468;2023-02-01T10:44:19;101255.13;;;9.08
53667;BMP280;39568;51.026;5.468;2023-02-01T10:46:47;101265.16;;;8.89
53667;BMP280;39568;51.026;5.468;2023-02-01T10:49:18;101262.53;;;8.36
53667;BMP280;39568;51.026;5.468;2023-02-01T10:51:47;101290.66;;;8.58
53667;BMP280;39568;51.026;5.468;2023-02-01T10:54:17;101271.75;;;8.65
53667;BMP280;39568;51.026;5.468;2023-02-01T10:56:46;101273.97;;;8.81
53667;BMP280;39568;51.026;5.468;2023-02-01T10:59:18;101271.75;;;8.17
53667;BMP280;39568;51.026;5.468;2023-02-01T11:01:45;101275.84;;;8.27
53667;BMP280;39568;51.026;5.468;2023-02-01T11:04:13;101276.09;;;8.53
53667;BMP280;39568;51.026;5.468;2023-02-01T11:06:44;101258.47;;;8.65
53667;BMP280;39568;51.026;5.468;2023-02-01T11:09:18;101251.56;;;8.44
53667;BMP280;39568;51.026;5.468;2023-02-01T11:11:56;101244.88;;;8.33
53667;BMP280;39568;51.026;5.468;2023-02-01T11:14:32;101246.78;;;8.33
53667;BMP280;39568;51.026;5.468;2023-02-01T11:17:01;101243.38;;;8.32
53667;BMP280;39568;51.026;5.468;2023-02-01T11:19:29;101253.16;;;8.26
53667;BMP280;39568;51.026;5.468;2023-02-01T11:22:00;101251.91;;;8.36
53667;BMP280;39568;51.026;5.468;2023-02-01T11:24:31;101246.31;;;8.34
53667;BMP280;39568;51.026;5.468;2023-02-01T11:27:01;101228.44;;;8.20
53667;BMP280;39568;51.026;5.468;2023-02-01T11:29:34;101225.84;;;8.35
53667;BMP280;39568;51.026;5.468;2023-02-01T11:32:03;101225.06;;;8.20
53667;BMP280;39568;51.026;5.468;2023-02-01T11:34:35;101219.22;;;8.30
53667;BMP280;39568;51.026;5.468;2023-02-01T11:37:03;101206.91;;;8.27
53667;BMP280;39568;51.026;5.468;2023-02-01T11:39:33;101208.50;;;8.10
53667;BMP280;39568;51.026;5.468;2023-02-01T11:42:03;101190.84;;;8.46
53667;BMP280;39568;51.026;5.468;2023-02-01T11:44:35;101210.69;;;8.50
53667;BMP280;39568;51.026;5.468;2023-02-01T11:47:21;101207.81;;;8.39
53667;BMP280;39568;51.026;5.468;2023-02-01T11:49:50;101212.28;;;8.57
53667;BMP280;39568;51.026;5.468;2023-02-01T11:52:25;101210.81;;;8.56
53667;BMP280;39568;51.026;5.468;2023-02-01T11:55:08;101202.03;;;8.64
53667;BMP280;39568;51.026;5.468;2023-02-01T11:57:52;101199.00;;;8.57
53667;BMP280;39568;51.026;5.468;2023-02-01T12:00:59;101197.81;;;8.58
53667;BMP280;39568;51.026;5.468;2023-02-01T12:03:59;101189.38;;;8.45
53667;BMP280;39568;51.026;5.468;2023-02-01T12:06:32;101186.59;;;8.39
53667;BMP280;39568;51.026;5.468;2023-02-01T12:09:13;101187.00;;;8.47
53667;BMP280;39568;51.026;5.468;2023-02-01T12:11:51;101201.53;;;8.51
53667;BMP280;39568;51.026;5.468;2023-02-01T12:14:27;101189.19;;;8.48
53667;BMP280;39568;51.026;5.468;2023-02-01T12:17:11;101184.44;;;8.37
53667;BMP280;39568;51.026;5.468;2023-02-01T12:19:56;101174.38;;;8.42
53667;BMP280;39568;51.026;5.468;2023-02-01T12:22:35;101169.91;;;8.48
53667;BMP280;39568;51.026;5.468;2023-02-01T12:25:24;101185.19;;;8.53
53667;BMP280;39568;51.026;5.468;2023-02-01T12:28:14;101177.88;;;8.48
53667;BMP280;39568;51.026;5.468;2023-02-01T12:30:58;101177.31;;;8.44
53667;BMP280;39568;51.026;5.468;2023-02-01T12:33:40;101196.84;;;8.31
53667;BMP280;39568;51.026;5.468;2023-02-01T12:36:14;101201.03;;;8.23
53667;BMP280;39568;51.026;5.468;2023-02-01T12:38:52;101203.50;;;8.27
53667;BMP280;39568;51.026;5.468;2023-02-01T12:41:35;101181.09;;;8.28
53667;BMP280;39568;51.026;5.468;2023-02-01T12:44:10;101177.75;;;8.27
53667;BMP280;39568;51.026;5.468;2023-02-01T12:46:41;101186.22;;;8.31
53667;BMP280;39568;51.026;5.468;2023-02-01T12:49:14;101165.66;;;8.26
53667;BMP280;39568;51.026;5.468;2023-02-01T12:51:45;101174.06;;;8.25
53667;BMP280;39568;51.026;5.468;2023-02-01T12:54:17;101194.28;;;8.22
53667;BMP280;39568;51.026;5.468;2023-02-01T12:56:47;101175.41;;;8.20
53667;BMP280;39568;51.026;5.468;2023-02-01T12:59:23;101163.00;;;8.26
53667;BMP280;39568;51.026;5.468;2023-02-01T13:01:54;101197.94;;;8.25
53667;BMP280;39568;51.026;5.468;2023-02-01T13:04:28;101178.06;;;8.20
53667;BMP280;39568;51.026;5.468;2023-02-01T13:07:04;101169.22;;;8.23
53667;BMP280;39568;51.026;5.468;2023-02-01T13:09:38;101165.94;;;8.28
53667;BMP280;39568;51.026;5.468;2023-02-01T13:12:11;101175.09;;;8.27
53667;BMP280;39568;51.026;5.468;2023-02-01T13:14:47;101176.53;;;8.28
53667;BMP280;39568;51.026;5.468;2023-02-01T13:17:19;101162.09;;;8.29
53667;BMP280;39568;51.026;5.468;2023-02-01T13:19:52;101164.47;;;8.42
53667;BMP280;39568;51.026;5.468;2023-02-01T13:22:22;101153.50;;;8.34
53667;BMP280;39568;51.026;5.468;2023-02-01T13:24:53;101157.38;;;8.33
53667;BMP280;39568;51.026;5.468;2023-02-01T13:27:21;101149.69;;;8.35
53667;BMP280;39568;51.026;5.468;2023-02-01T13:29:55;101167.41;;;8.29
53667;BMP280;39568;51.026;5.468;2023-02-01T13:32:41;101160.47;;;8.32
53667;BMP280;39568;51.026;5.468;2023-02-01T13:35:24;101149.97;;;8.37
53667;BMP280;39568;51.026;5.468;2023-02-01T13:38:08;101162.66;;;8.33
53667;BMP280;39568;51.026;5.468;2023-02-01T13:40:40;101142.63;;;8.32
53667;BMP280;39568;51.026;5.468;2023-02-01T13:43:12;101159.34;;;8.38
53667;BMP280;39568;51.026;5.468;2023-02-01T13:45:46;101162.84;;;8.30
53667;BMP280;39568;51.026;5.468;2023-02-01T13:48:19;101153.69;;;8.31
53667;BMP280;39568;51.026;5.468;2023-02-01T13:50:51;101161.38;;;8.44
53667;BMP280;39568;51.026;5.468;2023-02-01T13:53:20;101146.22;;;8.44
53667;BMP280;39568;51.026;5.468;2023-02-01T13:55:56;101149.88;;;8.47
53667;BMP280;39568;51.026;5.468;2023-02-01T13:58:30;101150.50;;;8.42
53667;BMP280;39568;51.026;5.468;2023-02-01T14:03:59;101153.53;;;8.49
53667;BMP280;39568;51.026;5.468;2023-02-01T14:06:40;101159.56;;;8.50
53667;BMP280;39568;51.026;5.468;2023-02-01T14:09:14;101160.84;;;8.54
53667;BMP280;39568;51.026;5.468;2023-02-01T14:11:45;101160.03;;;8.63
53667;BMP280;39568;51.026;5.468;2023-02-01T14:14:42;101158.13;;;8.63
53667;BMP280;39568;51.026;5.468;2023-02-01T14:17:39;101160.31;;;8.65
53667;BMP280;39568;51.026;5.468;2023-02-01T14:23:38;101168.09;;;8.68
53667;BMP280;39568;51.026;5.468;2023-02-01T14:26:12;101168.34;;;8.70
53667;BMP280;39568;51.026;5.468;2023-02-01T14:28:46;101154.06;;;8.68
53667;BMP280;39568;51.026;5.468;2023-02-01T14:34:22;101174.31;;;8.65
53667;BMP280;39568;51.026;5.468;2023-02-01T14:36:55;101183.16;;;8.62
53667;BMP280;39568;51.026;5.468;2023-02-01T14:39:28;101198.91;;;8.66
53667;BMP280;39568;51.026;5.468;2023-02-01T14:41:58;101186.50;;;8.57